createdAt,value
2023-01-28T00:01:33.927Z,3.50
2023-01-28T00:04:01.864Z,3.83
2023-01-28T00:06:29.737Z,3.70
2023-01-28T00:08:57.535Z,3.20
2023-01-28T00:11:25.408Z,4.03
2023-01-28T00:13:55.157Z,3.87
2023-01-28T00:16:23.655Z,3.83
2023-01-28T00:18:51.853Z,3.57
2023-01-28T00:21:22.912Z,3.53
2023-01-28T00:23:54.267Z,3.43
2023-01-28T00:26:22.858Z,3.30
2023-01-28T00:28:50.793Z,3.47
2023-01-28T00:31:21.717Z,3.33
2023-01-28T00:33:51.060Z,3.00
2023-01-28T00:36:20.131Z,3.23
2023-01-28T00:38:52.907Z,3.50
2023-01-28T00:41:23.318Z,3.67
2023-01-28T00:43:52.938Z,3.17
2023-01-28T00:46:23.010Z,3.20
2023-01-28T00:48:51.138Z,3.87
2023-01-28T00:51:20.162Z,3.63
2023-01-28T00:53:50.305Z,3.20
2023-01-28T00:56:19.554Z,3.77
2023-01-28T00:58:47.658Z,3.23
2023-01-28T01:01:17.768Z,3.40
2023-01-28T01:03:48.055Z,3.37
2023-01-28T01:06:17.199Z,3.27
2023-01-28T01:08:50.489Z,3.83
2023-01-28T01:11:19.945Z,3.73
2023-01-28T01:13:51.821Z,3.33
2023-01-28T01:16:19.737Z,3.07
2023-01-28T01:18:52.331Z,3.30
2023-01-28T01:21:22.141Z,4.10
2023-01-28T01:23:50.162Z,3.50
2023-01-28T01:26:18.208Z,3.33
2023-01-28T01:28:46.295Z,3.40
2023-01-28T01:31:16.032Z,3.53
2023-01-28T01:33:44.622Z,3.57
2023-01-28T01:36:14.917Z,4.00
2023-01-28T01:38:42.923Z,4.00
2023-01-28T01:41:26.328Z,3.60
2023-01-28T01:43:56.810Z,3.93
2023-01-28T01:46:28.967Z,3.67
2023-01-28T01:48:58.016Z,3.43
2023-01-28T01:51:30.844Z,3.37
2023-01-28T01:53:59.190Z,3.70
2023-01-28T01:56:30.602Z,3.40
2023-01-28T01:59:02.027Z,3.37
2023-01-28T02:01:32.208Z,3.20
2023-01-28T02:04:05.348Z,3.57
2023-01-28T02:06:35.891Z,3.07
2023-01-28T02:09:04.573Z,3.17
2023-01-28T02:11:34.081Z,3.70
2023-01-28T02:14:04.670Z,2.90
2023-01-28T02:16:33.597Z,3.00
2023-01-28T02:19:01.506Z,2.97
2023-01-28T02:21:52.596Z,3.20
2023-01-28T02:24:52.511Z,3.10
2023-01-28T02:27:26.176Z,3.03
2023-01-28T02:30:01.071Z,3.30
2023-01-28T02:32:33.143Z,3.17
2023-01-28T02:35:04.319Z,3.27
2023-01-28T02:37:37.387Z,3.67
2023-01-28T02:40:08.996Z,3.57
2023-01-28T02:42:38.824Z,3.30
2023-01-28T02:45:17.424Z,4.00
2023-01-28T02:47:59.363Z,3.80
2023-01-28T02:50:33.572Z,4.43
2023-01-28T02:53:30.356Z,3.83
2023-01-28T02:56:02.380Z,3.40
2023-01-28T02:58:36.742Z,3.70
2023-01-28T03:01:11.564Z,3.53
2023-01-28T03:03:47.002Z,3.50
2023-01-28T03:06:21.654Z,4.10
2023-01-28T03:09:09.885Z,3.80
2023-01-28T03:11:59.645Z,3.50
2023-01-28T03:14:45.976Z,3.60
2023-01-28T03:17:35.749Z,3.80
2023-01-28T03:20:21.773Z,3.20
2023-01-28T03:23:12.576Z,3.30
2023-01-28T03:25:59.533Z,3.63
2023-01-28T03:28:47.064Z,3.47
2023-01-28T03:31:33.981Z,3.57
2023-01-28T03:34:22.601Z,3.43
2023-01-28T03:36:51.486Z,3.17
2023-01-28T03:39:39.686Z,3.43
2023-01-28T03:42:11.956Z,3.00
2023-01-28T03:44:58.180Z,3.10
2023-01-28T03:47:27.782Z,3.77
2023-01-28T03:49:59.706Z,3.33
2023-01-28T03:52:31.040Z,3.80
2023-01-28T03:55:14.992Z,3.60
2023-01-28T03:57:44.951Z,3.53
2023-01-28T04:00:17.190Z,3.57
2023-01-28T04:02:46.228Z,3.67
2023-01-28T04:05:20.268Z,3.60
2023-01-28T04:07:52.801Z,3.20
2023-01-28T04:10:39.835Z,3.87
2023-01-28T04:13:18.294Z,3.53
2023-01-28T04:15:46.508Z,3.83
2023-01-28T04:18:15.733Z,3.90
2023-01-28T04:20:50.001Z,4.20
2023-01-28T04:23:18.718Z,3.83
2023-01-28T04:25:46.960Z,4.37
2023-01-28T04:28:14.832Z,4.20
2023-01-28T04:30:42.943Z,4.73
2023-01-28T04:33:24.651Z,4.57
2023-01-28T04:36:15.667Z,4.80
2023-01-28T04:38:43.907Z,4.00
2023-01-28T04:41:31.392Z,4.43
2023-01-28T04:44:05.503Z,4.20
2023-01-28T04:46:53.653Z,4.30
2023-01-28T04:49:40.360Z,4.00
2023-01-28T04:52:35.615Z,3.73
2023-01-28T04:55:27.201Z,4.60
2023-01-28T04:57:55.075Z,4.53
2023-01-28T05:00:23.122Z,4.17
2023-01-28T05:02:52.793Z,4.00
2023-01-28T05:05:20.835Z,4.30
2023-01-28T05:08:02.220Z,4.20
2023-01-28T05:10:30.324Z,4.40
2023-01-28T05:12:59.029Z,4.40
2023-01-28T05:15:27.110Z,4.40
2023-01-28T05:17:56.286Z,4.57
2023-01-28T05:20:24.854Z,4.17
2023-01-28T05:22:54.476Z,3.87
2023-01-28T05:25:27.690Z,4.37
2023-01-28T05:27:56.952Z,4.07
2023-01-28T05:30:24.920Z,4.00
2023-01-28T05:32:56.423Z,4.33
2023-01-28T05:35:24.388Z,3.97
2023-01-28T05:37:52.575Z,4.50
2023-01-28T05:40:20.892Z,3.90
2023-01-28T05:42:50.153Z,3.90
2023-01-28T05:45:37.855Z,4.00
2023-01-28T05:48:16.286Z,4.57
2023-01-28T05:51:05.597Z,3.87
2023-01-28T05:53:36.218Z,3.87
2023-01-28T05:56:04.336Z,4.23
2023-01-28T05:58:35.045Z,3.57
2023-01-28T06:01:04.355Z,4.20
2023-01-28T06:03:40.518Z,4.00
2023-01-28T06:06:08.636Z,3.60
2023-01-28T06:08:37.344Z,3.63
2023-01-28T06:11:05.980Z,3.63
2023-01-28T06:13:37.738Z,3.73
2023-01-28T06:16:23.883Z,3.93
2023-01-28T06:19:24.117Z,4.97
2023-01-28T06:21:51.986Z,3.70
2023-01-28T06:24:20.686Z,3.90
2023-01-28T06:26:48.542Z,3.00
2023-01-28T06:29:18.198Z,3.50
2023-01-28T06:31:46.064Z,3.43
2023-01-28T06:34:14.219Z,3.87
2023-01-28T06:36:42.087Z,3.60
2023-01-28T06:39:09.926Z,3.20
2023-01-28T06:41:37.884Z,3.93
2023-01-28T06:44:06.235Z,3.20
2023-01-28T06:46:35.932Z,3.27
2023-01-28T06:49:04.001Z,3.67
2023-01-28T06:51:31.814Z,3.23
2023-01-28T06:53:59.691Z,2.97
2023-01-28T06:56:27.526Z,3.37
2023-01-28T06:58:55.328Z,3.23
2023-01-28T07:01:23.835Z,3.00
2023-01-28T07:03:53.166Z,3.37
2023-01-28T07:06:20.968Z,3.83
2023-01-28T07:08:49.177Z,3.30
2023-01-28T07:11:17.183Z,3.90
2023-01-28T07:13:45.044Z,3.57
2023-01-28T07:16:12.835Z,3.53
2023-01-28T07:18:40.660Z,4.07
2023-01-28T07:21:09.963Z,3.30
2023-01-28T07:23:39.776Z,3.57
2023-01-28T07:26:07.704Z,3.90
2023-01-28T07:28:35.607Z,3.60
2023-01-28T07:31:03.600Z,3.23
2023-01-28T07:33:31.556Z,3.20
2023-01-28T07:35:59.367Z,3.03
2023-01-28T07:38:29.168Z,3.40
2023-01-28T07:40:56.959Z,3.87
2023-01-28T07:43:24.780Z,3.47
2023-01-28T07:45:52.611Z,3.30
2023-01-28T07:48:20.530Z,4.10
2023-01-28T07:50:49.652Z,3.40
2023-01-28T07:53:17.665Z,3.40
2023-01-28T07:55:47.382Z,3.47
2023-01-28T07:58:15.199Z,3.20
2023-01-28T08:00:43.088Z,3.77
2023-01-28T08:03:13.864Z,3.10
2023-01-28T08:05:45.705Z,3.47
2023-01-28T08:08:14.007Z,2.70
2023-01-28T08:10:46.391Z,3.27
2023-01-28T08:13:15.217Z,3.47
2023-01-28T08:15:43.304Z,3.00
2023-01-28T08:18:13.235Z,3.70
2023-01-28T08:20:41.439Z,3.97
2023-01-28T08:23:10.376Z,3.30
2023-01-28T08:25:38.333Z,2.63
2023-01-28T08:28:08.402Z,3.30
2023-01-28T08:30:38.132Z,3.20
2023-01-28T08:33:06.642Z,3.17
2023-01-28T08:35:35.223Z,3.13
2023-01-28T08:38:03.856Z,3.23
2023-01-28T08:40:32.345Z,3.23
2023-01-28T08:43:00.195Z,2.97
2023-01-28T08:45:30.283Z,2.73
2023-01-28T08:47:59.709Z,3.20
2023-01-28T08:50:32.549Z,3.00
2023-01-28T08:53:01.767Z,2.90
2023-01-28T08:55:31.290Z,2.80
2023-01-28T08:57:59.080Z,3.03
2023-01-28T09:00:26.984Z,2.73
2023-01-28T09:02:56.413Z,2.87
2023-01-28T09:05:24.374Z,2.93
2023-01-28T09:07:52.207Z,2.97
2023-01-28T09:10:20.474Z,2.93
2023-01-28T09:12:48.537Z,2.67
2023-01-28T09:15:17.013Z,2.97
2023-01-28T09:17:44.839Z,2.93
2023-01-28T09:20:14.449Z,3.17
2023-01-28T09:22:42.545Z,3.33
2023-01-28T09:25:10.783Z,2.83
2023-01-28T09:27:38.600Z,3.20
2023-01-28T09:30:07.460Z,3.30
2023-01-28T09:32:35.875Z,2.83
2023-01-28T09:35:04.043Z,3.10
2023-01-28T09:37:33.414Z,2.80
2023-01-28T09:40:01.723Z,3.30
2023-01-28T09:42:41.122Z,3.13
2023-01-28T09:45:16.187Z,3.07
2023-01-28T09:47:47.359Z,3.20
2023-01-28T09:50:18.000Z,3.40
2023-01-28T09:52:47.626Z,3.10
2023-01-28T09:55:20.662Z,3.10
2023-01-28T09:57:52.536Z,3.00
2023-01-28T10:00:23.846Z,3.10
2023-01-28T10:03:02.332Z,3.00
2023-01-28T10:05:39.239Z,3.23
2023-01-28T10:08:19.660Z,3.23
2023-01-28T10:10:51.972Z,3.07
2023-01-28T10:13:28.094Z,3.03
2023-01-28T10:16:04.806Z,3.10
2023-01-28T10:18:36.580Z,3.40
2023-01-28T10:21:09.112Z,3.47
2023-01-28T10:23:45.593Z,3.50
2023-01-28T10:26:21.983Z,2.80
2023-01-28T10:28:55.661Z,2.90
2023-01-28T10:31:25.138Z,3.20
2023-01-28T10:33:53.125Z,3.20
2023-01-28T10:36:21.066Z,2.90
2023-01-28T10:38:50.284Z,3.03
2023-01-28T10:41:21.898Z,3.17
2023-01-28T10:43:51.040Z,3.10
2023-01-28T10:46:21.234Z,2.77
2023-01-28T10:48:56.238Z,3.40
2023-01-28T10:51:32.105Z,3.17
2023-01-28T10:54:01.449Z,2.77
2023-01-28T10:56:30.605Z,3.57
2023-01-28T10:59:01.954Z,3.10
2023-01-28T11:01:45.322Z,2.70
2023-01-28T11:04:19.834Z,2.97
2023-01-28T11:06:59.849Z,3.03
2023-01-28T11:09:31.196Z,3.00
2023-01-28T11:11:59.359Z,3.40
2023-01-28T11:14:28.290Z,3.03
2023-01-28T11:16:59.097Z,2.80
2023-01-28T11:19:33.481Z,3.33
2023-01-28T11:22:01.653Z,3.23
2023-01-28T11:24:32.784Z,3.10
2023-01-28T11:27:12.667Z,3.60
2023-01-28T11:29:42.101Z,3.10
2023-01-28T11:32:18.987Z,3.30
2023-01-28T11:34:51.503Z,3.63
2023-01-28T11:37:22.795Z,3.13
2023-01-28T11:40:02.219Z,3.67
2023-01-28T11:42:30.119Z,3.93
2023-01-28T11:44:58.030Z,3.50
2023-01-28T11:47:42.199Z,3.93
2023-01-28T11:50:24.398Z,2.80
2023-01-28T11:53:07.421Z,3.27
2023-01-28T11:55:51.564Z,3.10
2023-01-28T11:58:24.113Z,4.17
2023-01-28T12:01:02.996Z,3.20
2023-01-28T12:03:53.000Z,3.07
2023-01-28T12:06:43.468Z,2.70
2023-01-28T12:09:18.286Z,2.70
2023-01-28T12:12:14.760Z,2.80
2023-01-28T12:15:00.979Z,2.70
2023-01-28T12:17:34.681Z,3.07
2023-01-28T12:20:09.518Z,3.00
2023-01-28T12:22:50.866Z,3.23
2023-01-28T12:25:33.215Z,2.70
2023-01-28T12:28:10.070Z,2.63
2023-01-28T12:31:03.602Z,2.80
2023-01-28T12:34:00.700Z,2.27
2023-01-28T12:36:41.852Z,2.60
2023-01-28T12:39:17.939Z,2.90
2023-01-28T12:41:49.040Z,2.90
2023-01-28T12:44:22.183Z,3.47
2023-01-28T12:46:55.723Z,3.63
2023-01-28T12:49:26.543Z,3.43
2023-01-28T12:52:00.822Z,3.10
2023-01-28T12:54:32.154Z,3.03
2023-01-28T12:57:00.889Z,3.77
2023-01-28T12:59:33.343Z,2.70
2023-01-28T13:02:18.569Z,2.90
2023-01-28T13:04:51.641Z,2.77
2023-01-28T13:07:23.565Z,3.30
2023-01-28T13:09:55.046Z,3.23
2023-01-28T13:12:23.300Z,3.10
2023-01-28T13:14:54.272Z,3.20
2023-01-28T13:17:30.438Z,2.67
2023-01-28T13:19:58.790Z,3.30
2023-01-28T13:22:32.911Z,3.10
2023-01-28T13:25:19.577Z,3.13
2023-01-28T13:27:56.553Z,3.13
2023-01-28T13:30:28.960Z,3.37
2023-01-28T13:32:59.263Z,3.00
2023-01-28T13:35:32.290Z,3.33
2023-01-28T13:38:01.027Z,3.20
2023-01-28T13:40:29.877Z,3.70
2023-01-28T13:43:03.113Z,3.30
2023-01-28T13:45:32.765Z,3.70
2023-01-28T13:48:07.378Z,3.30
2023-01-28T13:50:40.908Z,3.80
2023-01-28T13:53:25.390Z,3.23
2023-01-28T13:55:57.157Z,4.00
2023-01-28T13:59:04.344Z,3.57
2023-01-28T14:01:58.678Z,3.90
2023-01-28T14:04:44.389Z,3.60
2023-01-28T14:07:20.206Z,3.40
2023-01-28T14:10:04.891Z,3.37
2023-01-28T14:13:08.000Z,3.10
2023-01-28T14:15:48.576Z,3.80
2023-01-28T14:18:26.007Z,3.50
2023-01-28T14:20:55.708Z,3.43
2023-01-28T14:23:26.670Z,3.87
2023-01-28T14:26:05.490Z,3.70
2023-01-28T14:28:39.555Z,3.63
2023-01-28T14:31:10.325Z,4.07
2023-01-28T14:33:39.833Z,3.50
2023-01-28T14:36:10.500Z,3.37
2023-01-28T14:38:40.603Z,4.00
2023-01-28T14:41:09.019Z,3.10
2023-01-28T14:43:38.077Z,3.47
2023-01-28T14:46:17.767Z,3.47
2023-01-28T14:48:52.160Z,3.50
2023-01-28T14:51:49.518Z,3.83
2023-01-28T14:54:37.610Z,3.30
2023-01-28T14:57:16.616Z,3.40
2023-01-28T14:59:47.193Z,2.90
2023-01-28T15:02:20.712Z,2.90
2023-01-28T15:04:50.653Z,2.77
2023-01-28T15:07:20.733Z,2.70
2023-01-28T15:09:48.828Z,3.23
2023-01-28T15:12:18.048Z,3.47
2023-01-28T15:14:48.038Z,3.57
2023-01-28T15:17:25.398Z,2.77
2023-01-28T15:19:55.423Z,2.93
2023-01-28T15:22:26.177Z,3.50
2023-01-28T15:24:54.306Z,3.40
2023-01-28T15:27:28.856Z,3.37
2023-01-28T15:29:58.527Z,3.00
2023-01-28T15:32:28.127Z,3.57
2023-01-28T15:34:57.618Z,3.80
2023-01-28T15:37:25.510Z,3.70
2023-01-28T15:40:02.173Z,4.03
2023-01-28T15:42:31.865Z,4.00
2023-01-28T15:45:00.268Z,3.97
2023-01-28T15:47:30.226Z,3.53
2023-01-28T15:50:01.412Z,4.00
2023-01-28T15:52:35.607Z,4.10
2023-01-28T15:55:04.144Z,4.40
2023-01-28T15:57:33.627Z,3.90
2023-01-28T16:00:14.419Z,3.93
2023-01-28T16:02:46.647Z,4.10
2023-01-28T16:05:28.841Z,4.00
2023-01-28T16:07:57.576Z,3.90
2023-01-28T16:10:27.663Z,4.10
2023-01-28T16:12:57.406Z,4.30
2023-01-28T16:15:25.655Z,3.90
2023-01-28T16:17:56.249Z,4.20
2023-01-28T16:20:27.410Z,3.80
2023-01-28T16:22:57.014Z,3.93
2023-01-28T16:25:28.782Z,4.57
2023-01-28T16:27:56.896Z,4.27
2023-01-28T16:30:24.923Z,4.40
2023-01-28T16:32:53.180Z,4.33
2023-01-28T16:35:23.368Z,4.30
2023-01-28T16:37:52.640Z,4.17
2023-01-28T16:40:22.287Z,4.60
2023-01-28T16:42:50.994Z,4.77
2023-01-28T16:45:20.536Z,4.70
2023-01-28T16:47:48.586Z,4.60
2023-01-28T16:50:18.227Z,4.23
2023-01-28T16:52:47.582Z,4.27
2023-01-28T16:55:20.726Z,4.40
2023-01-28T16:57:50.262Z,4.80
2023-01-28T17:00:20.588Z,4.90
2023-01-28T17:02:48.566Z,5.00
2023-01-28T17:05:17.526Z,5.27
2023-01-28T17:07:48.866Z,5.07
2023-01-28T17:10:20.623Z,4.93
2023-01-28T17:12:49.081Z,4.60
2023-01-28T17:15:18.444Z,4.63
2023-01-28T17:17:49.273Z,4.60
2023-01-28T17:20:17.733Z,5.60
2023-01-28T17:22:45.860Z,5.90
2023-01-28T17:25:14.775Z,5.20
2023-01-28T17:27:44.205Z,5.20
2023-01-28T17:30:12.963Z,4.90
2023-01-28T17:32:40.833Z,5.20
2023-01-28T17:35:10.507Z,5.20
2023-01-28T17:37:38.424Z,6.20
2023-01-28T17:40:07.713Z,9.20
2023-01-28T17:42:35.681Z,7.03
2023-01-28T17:45:05.402Z,6.50
2023-01-28T17:47:33.281Z,5.13
2023-01-28T17:50:01.139Z,5.40
2023-01-28T17:52:28.986Z,5.17
2023-01-28T17:54:56.911Z,5.53
2023-01-28T17:57:25.171Z,5.73
2023-01-28T17:59:53.434Z,5.70
2023-01-28T18:02:23.094Z,5.60
2023-01-28T18:04:51.048Z,6.07
2023-01-28T18:07:18.943Z,5.70
2023-01-28T18:09:46.922Z,5.77
2023-01-28T18:12:16.473Z,5.20
2023-01-28T18:14:44.323Z,5.47
2023-01-28T18:17:12.610Z,6.03
2023-01-28T18:19:44.117Z,6.03
2023-01-28T18:22:12.192Z,5.43
2023-01-28T18:24:40.000Z,5.07
2023-01-28T18:27:07.884Z,4.93
2023-01-28T18:29:35.970Z,5.43
2023-01-28T18:32:05.000Z,5.40
2023-01-28T18:34:34.045Z,5.40
2023-01-28T18:37:06.668Z,5.20
2023-01-28T18:39:34.532Z,5.00
2023-01-28T18:42:02.394Z,5.47
2023-01-28T18:44:32.054Z,5.40
2023-01-28T18:47:00.099Z,5.23
2023-01-28T18:49:27.908Z,4.97
2023-01-28T18:51:55.735Z,6.07
2023-01-28T18:54:24.971Z,5.97
2023-01-28T18:56:52.949Z,6.50
2023-01-28T18:59:21.338Z,6.30
2023-01-28T19:01:49.861Z,6.17
2023-01-28T19:04:18.861Z,6.57
2023-01-28T19:06:47.506Z,5.17
2023-01-28T19:09:17.285Z,5.40
2023-01-28T19:11:48.364Z,5.30
2023-01-28T19:14:18.205Z,5.60
2023-01-28T19:16:46.116Z,6.30
2023-01-28T19:19:14.237Z,6.13
2023-01-28T19:21:42.571Z,5.60
2023-01-28T19:24:14.062Z,6.20
2023-01-28T19:26:44.817Z,5.60
2023-01-28T19:29:16.019Z,5.50
2023-01-28T19:31:48.615Z,5.10
2023-01-28T19:34:17.043Z,5.70
2023-01-28T19:36:45.018Z,5.50
2023-01-28T19:39:13.688Z,5.47
2023-01-28T19:41:42.255Z,5.33
2023-01-28T19:44:11.002Z,5.20
2023-01-28T19:46:41.491Z,6.17
2023-01-28T19:49:10.695Z,5.43
2023-01-28T19:51:38.561Z,5.20
2023-01-28T19:54:06.530Z,5.20
2023-01-28T19:56:36.151Z,5.97
2023-01-28T19:59:04.419Z,5.37
2023-01-28T20:01:36.031Z,5.10
2023-01-28T20:04:05.879Z,5.27
2023-01-28T20:06:35.374Z,5.83
2023-01-28T20:09:05.979Z,5.83
2023-01-28T20:11:33.800Z,6.00
2023-01-28T20:14:01.687Z,5.50
2023-01-28T20:16:31.379Z,5.77
2023-01-28T20:19:01.089Z,5.97
2023-01-28T20:21:33.775Z,7.20
2023-01-28T20:24:03.008Z,6.33
2023-01-28T20:26:35.475Z,6.20
2023-01-28T20:29:05.784Z,5.50
2023-01-28T20:31:33.822Z,5.93
2023-01-28T20:34:02.119Z,5.77
2023-01-28T20:36:30.061Z,6.00
2023-01-28T20:38:59.459Z,6.20
2023-01-28T20:41:28.342Z,6.13
2023-01-28T20:43:56.983Z,6.07
2023-01-28T20:46:27.659Z,6.00
2023-01-28T20:48:56.583Z,5.67
2023-01-28T20:51:25.660Z,5.70
2023-01-28T20:53:53.992Z,6.10
2023-01-28T20:56:25.017Z,6.33
2023-01-28T20:58:55.839Z,6.20
2023-01-28T21:01:28.765Z,6.30
2023-01-28T21:03:57.087Z,6.27
2023-01-28T21:06:25.758Z,6.00
2023-01-28T21:08:54.042Z,5.93
2023-01-28T21:11:24.071Z,5.40
2023-01-28T21:13:52.209Z,6.23
2023-01-28T21:16:20.535Z,5.77
2023-01-28T21:18:48.496Z,6.17
2023-01-28T21:21:19.747Z,6.13
2023-01-28T21:23:47.795Z,6.33
2023-01-28T21:26:16.443Z,6.60
2023-01-28T21:28:45.953Z,5.87
2023-01-28T21:31:17.173Z,5.20
2023-01-28T21:33:48.640Z,6.00
2023-01-28T21:36:17.364Z,6.03
2023-01-28T21:38:45.969Z,5.23
2023-01-28T21:41:13.845Z,6.27
2023-01-28T21:43:41.651Z,5.67
2023-01-28T21:46:10.910Z,6.57
2023-01-28T21:48:41.457Z,6.10
2023-01-28T21:51:27.351Z,5.50
2023-01-28T21:53:55.173Z,6.20
2023-01-28T21:56:23.061Z,6.13
2023-01-28T21:59:08.272Z,5.67
2023-01-28T22:01:37.572Z,6.40
2023-01-28T22:04:05.659Z,6.40
2023-01-28T22:06:33.458Z,6.30
2023-01-28T22:09:01.659Z,6.20
2023-01-28T22:11:29.606Z,6.30
2023-01-28T22:13:57.508Z,6.93
2023-01-28T22:16:25.332Z,5.80
2023-01-28T22:18:54.554Z,6.33
2023-01-28T22:21:22.392Z,6.00
2023-01-28T22:23:50.307Z,7.20
2023-01-28T22:26:18.264Z,6.90
2023-01-28T22:28:46.180Z,6.80
2023-01-28T22:31:15.424Z,6.60
2023-01-28T22:33:43.946Z,7.03
2023-01-28T22:36:15.990Z,6.40
2023-01-28T22:38:45.084Z,7.43
2023-01-28T22:41:14.581Z,7.00
2023-01-28T22:43:43.048Z,8.13
2023-01-28T22:46:11.385Z,8.03
2023-01-28T22:48:40.150Z,6.60
2023-01-28T22:51:09.630Z,6.90
2023-01-28T22:53:38.849Z,7.77
2023-01-28T22:56:07.575Z,7.57
2023-01-28T22:58:35.405Z,7.73
2023-01-28T23:01:03.288Z,7.63
2023-01-28T23:03:31.407Z,8.20
2023-01-28T23:05:59.898Z,7.30
2023-01-28T23:08:28.051Z,6.93
2023-01-28T23:10:59.598Z,7.10
2023-01-28T23:13:48.039Z,7.00
2023-01-28T23:16:33.349Z,6.30
2023-01-28T23:19:18.648Z,6.40
2023-01-28T23:22:03.844Z,6.30
2023-01-28T23:24:33.809Z,6.37
2023-01-28T23:27:03.941Z,6.87
2023-01-28T23:29:32.555Z,5.60
2023-01-28T23:32:02.041Z,6.70
2023-01-28T23:34:31.768Z,7.73
2023-01-28T23:36:59.692Z,5.70
2023-01-28T23:39:27.788Z,6.17
2023-01-28T23:41:55.666Z,5.83
2023-01-28T23:44:25.487Z,5.77
2023-01-28T23:46:53.810Z,6.80
2023-01-28T23:49:21.692Z,6.80
2023-01-28T23:51:49.690Z,6.50
2023-01-28T23:54:17.648Z,6.90
2023-01-28T23:56:45.484Z,6.53
2023-01-28T23:59:13.320Z,6.77
